Time;durP1;ratioP1;P1;durP2;ratioP2;P2;SDS_P1;SDS_P2;PMS_P1;PMS_P2;Temp;Humidity;BMP_temperature;BMP_pressure;BME280_temperature;BME280_humidity;BME280_pressure;Samples;Min_cycle;Max_cycle;Signal;HPM_P1;HPM_P2
2022/06/20 00:01:55;;;;;;;9.15;1.58;;;14.30;99.90;;;;;;4977655;28;20038;-75
2022/06/20 00:04:21;;;;;;;8.40;1.58;;;14.30;99.90;;;;;;4978163;28;20038;-75
2022/06/20 00:06:47;;;;;;;6.50;1.40;;;14.30;99.90;;;;;;4961646;28;20030;-75
2022/06/20 00:09:13;;;;;;;6.90;1.42;;;14.20;99.90;;;;;;4977822;28;20034;-75
2022/06/20 00:11:43;;;;;;;7.75;1.65;;;14.20;99.90;;;;;;4977509;28;20042;-75
2022/06/20 00:14:13;;;;;;;7.18;1.70;;;14.10;99.90;;;;;;4977745;28;20096;-75
2022/06/20 00:16:39;;;;;;;7.07;1.27;;;14.10;99.90;;;;;;4977744;28;20053;-76
2022/06/20 00:19:05;;;;;;;11.23;2.05;;;14.10;99.90;;;;;;4977535;28;20046;-75
2022/06/20 00:21:31;;;;;;;5.55;1.25;;;14.10;99.90;;;;;;4977301;28;20038;-75
2022/06/20 00:23:57;;;;;;;7.65;1.38;;;14.10;99.90;;;;;;4977335;28;20034;-75
2022/06/20 00:26:23;;;;;;;7.70;1.27;;;14.10;99.90;;;;;;4961531;28;20030;-75
2022/06/20 00:28:48;;;;;;;6.65;1.15;;;14.10;99.90;;;;;;4977186;28;20450;-75
2022/06/20 00:31:14;;;;;;;8.02;1.60;;;14.00;99.90;;;;;;4977689;28;20042;-75
2022/06/20 00:33:40;;;;;;;6.35;1.35;;;13.90;99.90;;;;;;4961617;28;20132;-76
2022/06/20 00:36:06;;;;;;;7.90;2.10;;;13.90;99.90;;;;;;4977062;28;20230;-75
2022/06/20 00:38:32;;;;;;;7.35;2.03;;;13.90;99.90;;;;;;4977421;28;20073;-75
2022/06/20 00:41:04;;;;;;;8.55;1.75;;;13.90;99.90;;;;;;4976975;28;20534;-75
2022/06/20 00:43:42;;;;;;;6.82;1.52;;;13.90;99.90;;;;;;4977096;28;20046;-75
2022/06/20 00:46:26;;;;;;;6.45;1.83;;;14.00;99.90;;;;;;4977071;28;20038;-75
2022/06/20 00:49:18;;;;;;;11.85;2.03;;;13.90;99.90;;;;;;4976856;28;20084;-75
2022/06/20 00:52:12;;;;;;;7.60;1.63;;;13.90;99.90;;;;;;4963703;28;20191;-75
2022/06/20 00:54:49;;;;;;;7.35;1.77;;;13.90;99.90;;;;;;4971002;28;20054;-75
2022/06/20 00:57:20;;;;;;;7.85;1.80;;;13.90;99.90;;;;;;4976987;28;20099;-75
2022/06/20 00:59:51;;;;;;;7.78;1.50;;;13.90;99.90;;;;;;4976621;28;20053;-75
2022/06/20 01:02:24;;;;;;;6.55;1.88;;;14.00;99.90;;;;;;4976680;28;20038;-75
2022/06/20 01:05:00;;;;;;;;;;;13.90;99.90;;;;;;4977330;28;20053;-75
2022/06/20 01:07:39;;;;;;;11.75;1.75;;;13.90;99.90;;;;;;4976553;28;19917;-75
2022/06/20 01:10:05;;;;;;;7.88;1.75;;;14.00;99.90;;;;;;4976625;28;20038;-76
2022/06/20 01:12:47;;;;;;;8.77;1.90;;;14.00;99.90;;;;;;4976455;28;20054;-76
2022/06/20 01:15:23;;;;;;;8.95;1.80;;;14.00;99.90;;;;;;4976550;28;20065;-76
2022/06/20 01:17:50;;;;;;;9.60;1.73;;;14.10;99.90;;;;;;4976560;28;20069;-75
2022/06/20 01:20:23;;;;;;;8.65;1.85;;;14.00;99.90;;;;;;4976615;28;20073;-75
2022/06/20 01:23:16;;;;;;;9.05;1.83;;;14.10;99.90;;;;;;4961399;28;20042;-76
2022/06/20 01:26:30;;;;;;;7.90;2.10;;;14.10;99.90;;;;;;4976495;28;20121;-75
2022/06/20 01:29:00;;;;;;;7.10;1.60;;;14.00;99.90;;;;;;4944050;28;20063;-75
2022/06/20 01:31:33;;;;;;;8.95;2.10;;;14.00;99.90;;;;;;4976565;28;20085;-75
2022/06/20 01:34:01;;;;;;;9.43;1.75;;;14.00;99.90;;;;;;4960861;28;20390;-76
2022/06/20 01:39:16;;;;;;;8.93;2.17;;;13.90;99.90;;;;;;4976208;28;20050;-75
2022/06/20 01:44:27;;;;;;;4.90;1.58;;;13.90;99.90;;;;;;4976413;28;20129;-75
2022/06/20 01:46:52;;;;;;;7.43;2.25;;;13.90;99.90;;;;;;4976473;28;20133;-75
2022/06/20 01:49:22;;;;;;;9.02;2.20;;;13.90;99.90;;;;;;4976062;28;20411;-75
2022/06/20 01:51:54;;;;;;;7.93;2.03;;;13.90;99.90;;;;;;4976174;28;20038;-76
2022/06/20 01:54:22;;;;;;;8.32;2.13;;;13.80;99.90;;;;;;4976357;28;20453;-76
2022/06/20 01:56:50;;;;;;;7.88;2.00;;;13.80;99.90;;;;;;4976104;28;20125;-76
2022/06/20 01:59:22;;;;;;;8.52;1.85;;;13.80;99.90;;;;;;4976175;28;20521;-75
2022/06/20 02:01:50;;;;;;;7.25;1.98;;;13.80;99.90;;;;;;4976048;28;20085;-76
2022/06/20 02:04:18;;;;;;;8.30;1.90;;;13.70;99.90;;;;;;4976252;28;20117;-76
2022/06/20 02:06:47;;;;;;;8.00;1.73;;;13.70;99.90;;;;;;4960089;28;20042;-75
2022/06/20 02:09:13;;;;;;;9.93;2.00;;;13.70;99.90;;;;;;4976168;28;20069;-75
2022/06/20 02:11:42;;;;;;;10.00;1.80;;;13.70;99.90;;;;;;4960079;28;20042;-75
2022/06/20 02:14:28;;;;;;;11.23;2.10;;;13.60;99.90;;;;;;4975835;28;20046;-75
2022/06/20 02:17:06;;;;;;;7.10;1.77;;;13.60;99.90;;;;;;4976058;28;20050;-75
2022/06/20 02:19:35;;;;;;;9.45;2.03;;;13.60;99.90;;;;;;4976027;28;20503;-75
2022/06/20 02:22:06;;;;;;;9.10;1.90;;;13.50;99.90;;;;;;4975761;28;20038;-75
2022/06/20 02:24:38;;;;;;;7.85;1.88;;;13.50;99.90;;;;;;4976221;28;20042;-75
2022/06/20 02:27:07;;;;;;;10.13;1.87;;;13.50;99.90;;;;;;4975857;28;20503;-75
2022/06/20 02:29:33;;;;;;;6.68;2.08;;;13.50;99.90;;;;;;4975734;28;20038;-75
2022/06/20 02:32:04;;;;;;;6.25;1.70;;;13.40;99.90;;;;;;4975859;28;20053;-75
2022/06/20 02:34:30;;;;;;;8.38;2.38;;;13.40;99.90;;;;;;4976038;28;20053;-75
2022/06/20 02:37:02;;;;;;;8.88;3.03;;;13.30;99.90;;;;;;4976212;28;20057;-75
2022/06/20 02:39:30;;;;;;;7.75;2.38;;;13.30;99.90;;;;;;4975694;28;20517;-75
2022/06/20 02:42:01;;;;;;;11.18;2.03;;;13.20;99.90;;;;;;4975798;28;20050;-75
2022/06/20 02:44:28;;;;;;;9.52;2.53;;;13.20;99.90;;;;;;4975987;28;20121;-75
2022/06/20 02:46:55;;;;;;;9.48;2.30;;;13.20;99.90;;;;;;4959730;28;20074;-75
2022/06/20 02:49:24;;;;;;;7.18;2.00;;;13.10;99.90;;;;;;4977269;28;20114;-75
2022/06/20 02:51:52;;;;;;;9.95;1.80;;;13.10;99.90;;;;;;4979314;28;20050;-76
2022/06/20 02:54:23;;;;;;;6.43;1.83;;;13.10;99.90;;;;;;4962901;28;20093;-76
2022/06/20 02:56:53;;;;;;;7.57;1.88;;;13.00;99.90;;;;;;4978971;28;20146;-75
2022/06/20 02:59:24;;;;;;;6.88;1.92;;;13.00;99.90;;;;;;4978940;28;20085;-75
2022/06/20 03:02:01;;;;;;;8.32;2.10;;;12.90;99.90;;;;;;4978895;28;20104;-75
2022/06/20 03:04:29;;;;;;;9.15;2.38;;;13.00;99.90;;;;;;4978887;28;20040;-75
2022/06/20 03:07:00;;;;;;;11.15;2.00;;;12.90;99.90;;;;;;4962819;28;20413;-75
2022/06/20 03:09:35;;;;;;;8.85;2.50;;;12.90;99.90;;;;;;4962502;28;20514;-75
2022/06/20 03:12:05;;;;;;;8.38;2.10;;;12.90;99.90;;;;;;4963091;28;20477;-75
2022/06/20 03:14:49;;;;;;;6.88;2.10;;;12.90;99.90;;;;;;4978941;28;20042;-76
2022/06/20 03:17:17;;;;;;;7.57;1.92;;;12.90;99.90;;;;;;4978901;28;20129;-75
2022/06/20 03:19:47;;;;;;;9.55;2.25;;;12.80;99.90;;;;;;4962666;28;20042;-75
2022/06/20 03:22:18;;;;;;;6.60;1.80;;;12.80;99.90;;;;;;4978469;28;20047;-76
2022/06/20 03:24:45;;;;;;;7.40;1.70;;;12.80;99.90;;;;;;4978674;28;20077;-76
2022/06/20 03:27:14;;;;;;;9.18;2.28;;;12.70;99.90;;;;;;4978602;28;20550;-75
2022/06/20 03:29:44;;;;;;;6.47;2.13;;;12.70;99.90;;;;;;4978315;28;20503;-75
2022/06/20 03:32:10;;;;;;;6.65;2.00;;;12.70;99.90;;;;;;4978336;28;20046;-75
2022/06/20 03:34:36;;;;;;;7.93;2.00;;;12.60;99.90;;;;;;4978627;28;20124;-75
2022/06/20 03:37:02;;;;;;;7.78;2.05;;;12.60;99.90;;;;;;4978501;28;20050;-75
2022/06/20 03:39:29;;;;;;;7.28;1.95;;;12.60;99.90;;;;;;4962296;28;20449;-75
2022/06/20 03:41:55;;;;;;;8.25;2.28;;;12.60;99.90;;;;;;4978053;28;20050;-76
2022/06/20 03:44:32;;;;;;;8.05;1.63;;;12.60;99.90;;;;;;4978102;28;20038;-75
2022/06/20 03:47:07;;;;;;;8.23;2.00;;;12.60;99.90;;;;;;4978470;28;20041;-75
2022/06/20 03:49:57;;;;;;;9.48;2.15;;;12.60;99.90;;;;;;4978195;28;20148;-75
2022/06/20 03:52:27;;;;;;;5.95;1.83;;;12.50;99.90;;;;;;4962348;28;20416;-75
2022/06/20 03:55:20;;;;;;;7.75;1.70;;;12.50;99.90;;;;;;4977921;28;20052;-76
2022/06/20 03:58:07;;;;;;;7.20;1.87;;;12.50;99.90;;;;;;4977875;28;20406;-75
2022/06/20 04:00:38;;;;;;;8.38;1.83;;;12.40;99.90;;;;;;4977549;28;20042;-75
2022/06/20 04:03:17;;;;;;;6.50;1.60;;;12.40;99.90;;;;;;4977772;28;20046;-76
2022/06/20 04:05:48;;;;;;;8.60;2.10;;;12.40;99.90;;;;;;4978197;28;20038;-76
2022/06/20 04:10:57;;;;;;;8.30;1.80;;;12.40;99.90;;;;;;4977539;28;20042;-75
2022/06/20 04:11:18;;;;;;;6.32;1.80;;;12.40;99.90;;;;;;4978590;28;20056;-76
2022/06/20 04:14:04;;;;;;;6.22;1.98;;;12.40;99.90;;;;;;4978060;28;20113;-75
2022/06/20 04:16:43;;;;;;;7.95;1.90;;;12.40;99.90;;;;;;4977717;28;20499;-75
2022/06/20 04:19:28;;;;;;;6.50;1.90;;;12.40;99.90;;;;;;4977685;28;20042;-75
2022/06/20 04:22:00;;;;;;;9.05;2.30;;;12.40;99.90;;;;;;4977713;28;20042;-76
2022/06/20 04:24:57;;;;;;;7.13;1.88;;;12.50;99.90;;;;;;4977537;28;20054;-76
2022/06/20 04:27:31;;;;;;;7.22;2.55;;;12.50;99.90;;;;;;4977270;28;20045;-76
2022/06/20 04:30:09;;;;;;;10.05;2.25;;;12.50;99.90;;;;;;4977272;28;20042;-75
2022/06/20 04:32:42;;;;;;;7.65;1.95;;;12.60;99.90;;;;;;4977183;28;20042;-76
2022/06/20 04:35:32;;;;;;;8.40;2.00;;;12.70;99.90;;;;;;4977424;28;20133;-76
2022/06/20 04:38:16;;;;;;;9.15;2.25;;;12.70;99.90;;;;;;4960941;28;20038;-75
2022/06/20 04:40:59;;;;;;;8.48;2.33;;;12.80;99.90;;;;;;4977162;28;20520;-75
2022/06/20 04:43:41;;;;;;;8.47;2.47;;;12.90;99.90;;;;;;4977313;28;20100;-76
2022/06/20 04:46:37;;;;;;;6.50;2.03;;;12.90;99.90;;;;;;4977447;28;20308;-76
2022/06/20 04:49:03;;;;;;;17.27;2.88;;;13.00;99.90;;;;;;4977077;28;20092;-75
2022/06/20 04:51:33;;;;;;;9.48;2.30;;;13.00;99.90;;;;;;4960996;28;20043;-75
2022/06/20 04:53:59;;;;;;;9.65;2.38;;;13.10;99.90;;;;;;4976903;28;20503;-75
2022/06/20 04:56:28;;;;;;;9.98;2.10;;;13.10;99.90;;;;;;4976859;28;20056;-75
2022/06/20 04:58:58;;;;;;;8.07;2.30;;;13.20;99.90;;;;;;4976721;28;20046;-75
2022/06/20 05:01:25;;;;;;;9.82;2.20;;;13.20;99.90;;;;;;4976851;28;20078;-76
2022/06/20 05:03:57;;;;;;;12.73;2.50;;;13.30;99.90;;;;;;4976713;28;20034;-76
2022/06/20 05:06:29;;;;;;;10.23;2.42;;;13.30;99.90;;;;;;4976919;28;20527;-75
2022/06/20 05:09:12;;;;;;;6.45;2.20;;;13.40;99.90;;;;;;4960466;28;20130;-75
2022/06/20 05:11:47;;;;;;;11.60;2.53;;;13.40;99.90;;;;;;4976160;28;20038;-75
2022/06/20 05:14:30;;;;;;;7.45;1.98;;;13.50;99.90;;;;;;4976550;28;20513;-75
2022/06/20 05:16:56;;;;;;;8.05;1.92;;;13.50;99.90;;;;;;4977911;28;20074;-75
2022/06/20 05:19:26;;;;;;;10.95;2.25;;;13.50;99.90;;;;;;4976618;28;20046;-75
2022/06/20 05:21:56;;;;;;;7.65;2.30;;;13.60;99.90;;;;;;4976611;28;20054;-76
2022/06/20 05:24:26;;;;;;;9.52;2.13;;;13.60;99.90;;;;;;4976309;28;20495;-76
2022/06/20 05:26:54;;;;;;;8.82;2.35;;;13.70;99.90;;;;;;4976381;28;20089;-76
2022/06/20 05:29:32;;;;;;;7.82;2.53;;;13.80;99.90;;;;;;4960123;28;20042;-75
2022/06/20 05:32:02;;;;;;;12.20;2.25;;;13.90;99.90;;;;;;4976338;28;20495;-76
2022/06/20 05:34:31;;;;;;;8.32;2.72;;;13.90;99.90;;;;;;4976543;28;20056;-76
2022/06/20 05:37:18;;;;;;;9.50;2.53;;;14.00;99.90;;;;;;4976274;28;20130;-77
2022/06/20 05:39:56;;;;;;;10.38;2.50;;;14.10;99.90;;;;;;4976308;28;20053;-76
2022/06/20 05:42:22;;;;;;;8.32;2.40;;;14.10;99.90;;;;;;4975974;28;20050;-76
2022/06/20 05:44:48;;;;;;;12.40;2.75;;;14.10;99.90;;;;;;4976403;28;20061;-76
2022/06/20 05:47:21;;;;;;;9.93;2.40;;;14.20;99.90;;;;;;4976217;28;20143;-76
2022/06/20 05:49:51;;;;;;;11.80;2.70;;;14.30;99.90;;;;;;4976045;28;20042;-75
2022/06/20 05:52:24;;;;;;;7.90;2.35;;;14.30;99.90;;;;;;4976145;28;20108;-76
2022/06/20 05:54:59;;;;;;;;;;;14.40;99.90;;;;;;4976736;28;20046;-76
2022/06/20 05:57:27;;;;;;;11.85;2.40;;;14.40;99.90;;;;;;4977232;28;19980;-76
2022/06/20 06:00:00;;;;;;;10.32;2.58;;;14.40;99.90;;;;;;4976112;28;20053;-74
2022/06/20 06:02:40;;;;;;;13.80;3.38;;;14.50;99.90;;;;;;4976064;28;20525;-74
2022/06/20 06:05:39;;;;;;;11.23;2.50;;;14.60;99.90;;;;;;4976329;28;20045;-74
2022/06/20 06:08:46;;;;;;;12.82;3.03;;;14.70;99.90;;;;;;4975965;28;20042;-74
2022/06/20 06:11:25;;;;;;;13.88;3.63;;;14.80;99.90;;;;;;4966230;28;20129;-72
2022/06/20 06:13:54;;;;;;;15.02;3.20;;;14.90;99.90;;;;;;4976469;28;20413;-73
2022/06/20 06:16:48;;;;;;;12.88;3.22;;;14.90;99.90;;;;;;4976080;28;20042;-72
2022/06/20 06:19:25;;;;;;;11.90;3.42;;;15.00;99.90;;;;;;4976224;28;20129;-72
2022/06/20 06:21:53;;;;;;;13.15;3.83;;;15.10;99.90;;;;;;4975868;28;20137;-72
2022/06/20 06:24:24;;;;;;;10.55;3.33;;;15.10;99.90;;;;;;4980039;28;20053;-73
2022/06/20 06:26:55;;;;;;;10.32;3.45;;;15.20;99.90;;;;;;4980045;28;20065;-73
2022/06/20 06:29:23;;;;;;;13.57;3.78;;;15.20;99.90;;;;;;4963673;28;20097;-72
2022/06/20 06:31:54;;;;;;;11.60;3.25;;;15.20;99.90;;;;;;4979471;28;20100;-72
2022/06/20 06:34:28;;;;;;;12.48;3.40;;;15.30;99.90;;;;;;4979463;28;20510;-72
2022/06/20 06:37:03;;;;;;;10.02;3.33;;;15.30;99.90;;;;;;4979574;28;20046;-73
2022/06/20 06:39:36;;;;;;;12.32;3.33;;;15.40;99.90;;;;;;4963344;28;20042;-73
2022/06/20 06:42:05;;;;;;;12.63;3.30;;;15.50;99.90;;;;;;4979574;28;20046;-72
2022/06/20 06:44:36;;;;;;;12.23;3.08;;;15.50;99.90;;;;;;4979248;28;20554;-73
2022/06/20 06:47:02;;;;;;;12.02;3.35;;;15.70;99.90;;;;;;4979297;28;20487;-73
2022/06/20 06:49:49;;;;;;;10.55;2.83;;;15.80;99.90;;;;;;4979146;28;20517;-72
2022/06/20 06:52:23;;;;;;;8.75;2.30;;;16.00;99.90;;;;;;4979583;28;20046;-72
2022/06/20 06:54:57;;;;;;;11.10;2.47;;;16.10;99.90;;;;;;4979285;28;20049;-72
2022/06/20 06:57:36;;;;;;;11.77;3.00;;;16.10;99.90;;;;;;4963450;28;20077;-73
2022/06/20 07:00:05;;;;;;;12.27;2.80;;;16.10;99.90;;;;;;4979502;28;20038;-73
2022/06/20 07:02:56;;;;;;;11.07;3.42;;;16.00;99.90;;;;;;4962957;28;20047;-72
2022/06/20 07:05:47;;;;;;;14.02;3.65;;;16.10;99.90;;;;;;4970968;28;20056;-73
2022/06/20 07:08:26;;;;;;;10.35;3.03;;;16.10;99.90;;;;;;4975193;28;20046;-73
2022/06/20 07:11:28;;;;;;;8.65;2.92;;;16.00;99.90;;;;;;4978916;28;20130;-72
2022/06/20 07:14:09;;;;;;;10.00;2.85;;;15.90;99.90;;;;;;4901966;29;20063;-73
2022/06/20 07:16:48;;;;;;;10.00;2.40;;;15.80;99.90;;;;;;4917213;29;20048;-73
2022/06/20 07:19:14;;;;;;;12.25;2.92;;;15.70;99.90;;;;;;4901478;29;20056;-73
2022/06/20 07:21:42;;;;;;;13.07;2.38;;;15.60;99.90;;;;;;4917010;29;20113;-73
2022/06/20 07:24:13;;;;;;;10.60;2.67;;;15.50;99.90;;;;;;4917127;29;20079;-72
2022/06/20 07:26:45;;;;;;;12.73;3.00;;;15.50;99.90;;;;;;4901279;29;20035;-72
2022/06/20 07:29:20;;;;;;;10.02;2.70;;;15.50;99.90;;;;;;4885936;29;20040;-73
2022/06/20 07:31:50;;;;;;;10.82;2.42;;;15.60;99.90;;;;;;4901411;29;20115;-72
2022/06/20 07:34:28;;;;;;;10.15;3.03;;;15.80;99.90;;;;;;4884907;29;20048;-72
2022/06/20 07:37:05;;;;;;;10.60;2.65;;;16.00;99.90;;;;;;4901543;29;20497;-72
2022/06/20 07:39:38;;;;;;;9.20;2.20;;;16.20;99.90;;;;;;4885442;29;20436;-72
2022/06/20 07:42:16;;;;;;;7.32;2.15;;;16.20;99.90;;;;;;4900952;29;20108;-72
2022/06/20 07:44:47;;;;;;;9.00;2.20;;;16.20;99.90;;;;;;4901492;29;20516;-72
2022/06/20 07:47:24;;;;;;;10.98;2.63;;;16.40;99.90;;;;;;4900956;29;20040;-73
2022/06/20 07:50:01;;;;;;;11.18;2.63;;;16.60;99.90;;;;;;4925438;28;20495;-73
2022/06/20 07:52:45;;;;;;;8.85;2.42;;;16.80;99.90;;;;;;4978360;28;20053;-73
2022/06/20 07:55:17;;;;;;;10.70;2.50;;;17.00;99.90;;;;;;4962177;28;20046;-73
2022/06/20 07:58:21;;;;;;;9.97;2.03;;;17.10;99.90;;;;;;4977938;28;20048;-72
2022/06/20 08:00:50;;;;;;;9.75;2.15;;;17.10;99.90;;;;;;4939185;28;20054;-71
2022/06/20 08:03:33;;;;;;;9.55;2.40;;;16.90;99.90;;;;;;4978054;28;20034;-71
2022/06/20 08:06:06;;;;;;;12.07;2.10;;;16.80;99.90;;;;;;4978496;28;20042;-69
2022/06/20 08:08:39;;;;;;;;;;;16.80;99.90;;;;;;4977992;28;20045;-69
2022/06/20 08:14:14;;;;;;;9.68;2.20;;;17.30;99.90;;;;;;4977598;28;20077;-69
2022/06/20 08:16:41;;;;;;;13.15;2.40;;;17.40;99.90;;;;;;4961433;28;20431;-69
2022/06/20 08:19:06;;;;;;;13.25;2.60;;;17.30;99.90;;;;;;4977898;28;20046;-69
2022/06/20 08:21:40;;;;;;;7.07;2.08;;;17.20;99.90;;;;;;4977648;28;20104;-69
2022/06/20 08:24:30;;;;;;;7.22;2.38;;;17.20;99.90;;;;;;4977729;28;20042;-69
2022/06/20 08:27:04;;;;;;;9.75;1.90;;;17.30;99.90;;;;;;4977866;28;20065;-69
2022/06/20 08:29:46;;;;;;;8.80;2.40;;;17.30;99.90;;;;;;4977383;28;20105;-69
2022/06/20 08:32:22;;;;;;;7.05;1.83;;;17.20;99.90;;;;;;4977320;28;20042;-69
2022/06/20 08:35:04;;;;;;;8.85;2.03;;;17.00;99.90;;;;;;4977272;28;20046;-69
2022/06/20 08:37:39;;;;;;;11.88;2.05;;;17.00;99.90;;;;;;4977211;28;20047;-68
2022/06/20 08:40:24;;;;;;;9.05;2.50;;;17.20;99.90;;;;;;4977189;28;20569;-68
2022/06/20 08:43:27;;;;;;;8.52;2.17;;;17.60;99.90;;;;;;4977102;28;20042;-68
2022/06/20 08:46:15;;;;;;;8.10;1.98;;;17.90;99.90;;;;;;4976988;28;20038;-69
2022/06/20 08:49:18;;;;;;;9.05;1.75;;;17.90;99.90;;;;;;4899502;29;20052;-69
2022/06/20 08:52:20;;;;;;;7.13;1.23;;;17.80;99.90;;;;;;4899921;29;20048;-69
2022/06/20 08:55:21;;;;;;;8.20;1.70;;;17.80;99.90;;;;;;4899685;29;20046;-68
2022/06/20 08:57:51;;;;;;;4.55;1.50;;;18.00;99.90;;;;;;4899556;29;20420;-69
2022/06/20 09:00:55;;;;;;;6.82;0.93;;;18.10;99.90;;;;;;4899894;29;20060;-69
2022/06/20 09:03:42;;;;;;;5.45;1.15;;;18.40;99.90;;;;;;4899582;29;20059;-69
2022/06/20 09:06:35;;;;;;;6.53;1.55;;;18.60;99.90;;;;;;4899621;29;20135;-68
2022/06/20 09:09:01;;;;;;;7.57;1.15;;;18.80;99.90;;;;;;4899219;29;20544;-69
2022/06/20 09:11:43;;;;;;;4.95;1.05;;;18.60;99.90;;;;;;4883789;29;20044;-69
2022/06/20 09:14:23;;;;;;;4.93;1.20;;;18.50;99.90;;;;;;4899424;29;20067;-69
2022/06/20 09:17:03;;;;;;;4.93;1.15;;;18.40;98.90;;;;;;4899338;29;20044;-72
2022/06/20 09:19:46;;;;;;;5.85;1.10;;;18.70;99.90;;;;;;4899410;29;20052;-72
2022/06/20 09:22:39;;;;;;;3.95;1.17;;;18.90;99.70;;;;;;4899767;29;20075;-72
2022/06/20 09:25:17;;;;;;;5.20;1.20;;;19.20;99.10;;;;;;4916819;28;20076;-72
2022/06/20 09:27:55;;;;;;;5.38;1.15;;;19.50;94.50;;;;;;4976662;28;20562;-73
2022/06/20 09:30:37;;;;;;;4.43;1.15;;;19.50;93.10;;;;;;4960343;28;20078;-71
2022/06/20 09:33:09;;;;;;;4.60;1.38;;;19.40;92.60;;;;;;4976401;28;20089;-72
2022/06/20 09:35:54;;;;;;;3.42;1.40;;;19.30;95.40;;;;;;4976347;28;20046;-72
2022/06/20 09:38:49;;;;;;;5.57;1.27;;;19.20;96.10;;;;;;4976503;28;20173;-72
2022/06/20 09:41:33;;;;;;;11.70;1.50;;;19.00;97.20;;;;;;4908641;28;20617;-72
2022/06/20 09:44:18;;;;;;;6.55;1.45;;;19.20;97.80;;;;;;4976430;28;20038;-72
2022/06/20 09:46:46;;;;;;;7.18;1.52;;;19.40;99.20;;;;;;4976515;28;20034;-72
2022/06/20 09:49:35;;;;;;;5.18;1.60;;;19.40;98.60;;;;;;4976332;28;20137;-70
2022/06/20 09:52:12;;;;;;;4.38;1.25;;;19.40;98.30;;;;;;4975892;28;20502;-70
2022/06/20 09:54:56;;;;;;;4.60;1.45;;;19.40;95.10;;;;;;4976165;28;20042;-70
2022/06/20 09:57:34;;;;;;;5.47;1.20;;;19.40;93.70;;;;;;4976133;28;20042;-70
2022/06/20 10:00:05;;;;;;;7.32;1.45;;;19.30;93.90;;;;;;4980066;28;20050;-70
2022/06/20 10:02:49;;;;;;;4.45;1.30;;;19.30;95.60;;;;;;4980009;28;20050;-69
2022/06/20 10:05:44;;;;;;;6.97;1.73;;;19.40;95.90;;;;;;4980010;28;20053;-69
2022/06/20 10:08:37;;;;;;;8.30;1.88;;;19.70;99.10;;;;;;4963697;28;20038;-66
2022/06/20 10:11:13;;;;;;;10.40;2.05;;;19.90;96.20;;;;;;4979971;28;20046;-66
2022/06/20 10:13:58;;;;;;;7.38;1.30;;;19.90;91.40;;;;;;4980363;28;20054;-66
2022/06/20 10:16:35;;;;;;;9.57;1.50;;;20.20;89.20;;;;;;4979881;28;20042;-66
2022/06/20 10:19:08;;;;;;;8.68;1.55;;;20.40;86.80;;;;;;4979889;28;20549;-66
2022/06/20 10:22:04;;;;;;;5.57;1.30;;;20.40;86.60;;;;;;4980097;28;20089;-71
2022/06/20 10:25:04;;;;;;;7.95;1.73;;;20.50;90.20;;;;;;4963525;28;20411;-71
2022/06/20 10:27:29;;;;;;;6.35;1.48;;;20.30;83.60;;;;;;4979850;28;20532;-71
2022/06/20 10:30:18;;;;;;;8.88;1.50;;;20.00;88.50;;;;;;4979600;28;20042;-71
2022/06/20 10:33:08;;;;;;;8.18;1.30;;;20.20;92.30;;;;;;4979130;28;20054;-71
2022/06/20 10:36:13;;;;;;;4.90;1.30;;;20.40;88.40;;;;;;4979763;28;20053;-71
2022/06/20 10:38:40;;;;;;;6.57;1.23;;;20.80;91.30;;;;;;4979603;28;20113;-71
2022/06/20 10:41:26;;;;;;;4.30;1.38;;;21.10;88.50;;;;;;4979279;28;20085;-72
2022/06/20 10:44:19;;;;;;;6.55;1.35;;;21.10;82.00;;;;;;4963211;28;20088;-71
2022/06/20 10:47:04;;;;;;;8.20;1.50;;;20.80;80.20;;;;;;4963593;28;20045;-71
2022/06/20 10:49:44;;;;;;;5.03;1.25;;;20.40;83.40;;;;;;4963439;28;20034;-71
2022/06/20 10:52:36;;;;;;;6.38;1.20;;;20.40;90.80;;;;;;4979200;28;20050;-71
2022/06/20 10:55:34;;;;;;;6.00;1.23;;;20.70;91.80;;;;;;4979442;28;20054;-71
2022/06/20 10:58:00;;;;;;;5.88;1.35;;;20.80;88.10;;;;;;4979192;28;20049;-74
2022/06/20 11:00:28;;;;;;;7.63;1.15;;;20.80;84.60;;;;;;4963394;28;20046;-74
2022/06/20 11:03:03;;;;;;;6.07;1.40;;;20.90;80.20;;;;;;4962895;28;20042;-71
2022/06/20 11:05:51;;;;;;;7.25;1.25;;;21.20;81.20;;;;;;4979164;28;20042;-71
2022/06/20 11:08:58;;;;;;;8.20;1.30;;;21.60;75.10;;;;;;4962651;28;20407;-71
2022/06/20 11:11:32;;;;;;;5.43;1.20;;;21.90;74.80;;;;;;4901164;29;20052;-72
2022/06/20 11:14:15;;;;;;;4.68;1.58;;;22.20;71.80;;;;;;4917294;29;20509;-72
2022/06/20 11:17:02;;;;;;;5.97;1.23;;;22.00;66.80;;;;;;4901728;29;20135;-71
2022/06/20 11:19:44;;;;;;;9.10;1.40;;;21.60;68.00;;;;;;4901562;29;20052;-71
2022/06/20 11:22:18;;;;;;;5.43;1.30;;;21.70;65.80;;;;;;4901749;29;20544;-72
2022/06/20 11:25:08;;;;;;;5.90;1.33;;;21.80;68.20;;;;;;4901493;29;20513;-71
2022/06/20 11:27:40;;;;;;;7.65;1.42;;;21.80;65.10;;;;;;4885615;29;20059;-71
2022/06/20 11:30:23;;;;;;;12.27;1.70;;;21.70;67.80;;;;;;4901598;29;20127;-72
2022/06/20 11:32:58;;;;;;;;;;;21.40;67.90;;;;;;4901767;29;20055;-73
2022/06/20 11:35:38;;;;;;;5.93;1.17;;;21.10;71.30;;;;;;4901267;29;20351;-70
2022/06/20 11:38:26;;;;;;;7.88;1.90;;;21.00;74.20;;;;;;4901360;29;20052;-71
2022/06/20 11:41:03;;;;;;;8.88;1.77;;;20.90;74.40;;;;;;4901369;29;20052;-71
2022/06/20 11:43:43;;;;;;;5.65;1.63;;;20.90;77.00;;;;;;4917004;29;20081;-71
2022/06/20 11:46:21;;;;;;;7.40;1.58;;;21.10;78.50;;;;;;4913258;28;20057;-72
2022/06/20 11:49:16;;;;;;;7.70;1.40;;;21.10;74.70;;;;;;4978308;28;20476;-72
2022/06/20 11:52:03;;;;;;;5.78;1.55;;;21.10;76.30;;;;;;4978669;28;20104;-72
2022/06/20 11:55:14;;;;;;;6.32;1.48;;;21.00;79.60;;;;;;4978408;28;20054;-72
2022/06/20 11:57:52;;;;;;;6.35;1.58;;;20.90;79.00;;;;;;4978113;28;20042;-71
2022/06/20 12:00:27;;;;;;;7.05;1.77;;;20.90;81.70;;;;;;4978192;28;20129;-71
2022/06/20 12:03:04;;;;;;;6.60;1.92;;;20.90;80.40;;;;;;4977977;28;20129;-74
2022/06/20 12:05:56;;;;;;;11.07;2.00;;;20.90;79.10;;;;;;4978051;28;20384;-72
2022/06/20 12:08:34;;;;;;;7.55;1.67;;;20.80;81.30;;;;;;4978018;28;20038;-74
2022/06/20 12:11:11;;;;;;;7.30;1.65;;;20.80;85.30;;;;;;4977988;28;20038;-73
2022/06/20 12:13:51;;;;;;;6.50;1.30;;;20.90;83.20;;;;;;4978182;28;20042;-74
2022/06/20 12:16:42;;;;;;;4.75;1.30;;;21.10;82.90;;;;;;4977490;28;20034;-74
2022/06/20 12:25:39;;;;;;;4.70;1.33;;;21.90;74.10;;;;;;4977646;28;20047;-75
2022/06/20 12:28:40;;;;;;;7.70;1.45;;;22.30;71.10;;;;;;4961449;28;20415;-72
2022/06/20 12:31:08;;;;;;;6.68;1.77;;;22.30;69.10;;;;;;4977616;28;20038;-72
2022/06/20 12:33:41;;;;;;;3.85;1.10;;;22.00;69.30;;;;;;4977384;28;20081;-73
2022/06/20 12:36:19;;;;;;;4.63;1.20;;;21.70;68.60;;;;;;4977787;28;20030;-73
2022/06/20 12:38:54;;;;;;;6.20;1.38;;;21.50;70.30;;;;;;4977339;28;20495;-73
2022/06/20 12:41:21;;;;;;;5.55;1.25;;;21.50;73.90;;;;;;4977463;28;20050;-73
2022/06/20 12:44:05;;;;;;;5.05;1.30;;;21.60;75.90;;;;;;4977562;28;20084;-73
2022/06/20 12:47:01;;;;;;;5.60;1.10;;;21.80;76.60;;;;;;4977068;28;20038;-73
2022/06/20 12:49:41;;;;;;;5.82;1.30;;;22.20;74.40;;;;;;4977492;28;20042;-73
2022/06/20 12:52:16;;;;;;;4.28;1.10;;;22.40;73.60;;;;;;4977023;28;20494;-73
2022/06/20 12:54:55;;;;;;;5.78;1.40;;;22.60;69.10;;;;;;4977476;28;20050;-73
2022/06/20 12:57:53;;;;;;;5.80;1.13;;;22.60;66.20;;;;;;4977689;28;20046;-73
2022/06/20 13:00:23;;;;;;;5.65;1.30;;;22.70;67.30;;;;;;4977231;28;20061;-73
2022/06/20 13:02:49;;;;;;;9.55;1.67;;;22.80;66.10;;;;;;4977060;28;20046;-73
2022/06/20 13:05:47;;;;;;;6.65;1.25;;;23.00;67.30;;;;;;4977016;28;20046;-73
2022/06/20 13:08:39;;;;;;;4.03;1.20;;;23.10;67.50;;;;;;4976618;28;20109;-73
2022/06/20 13:11:28;;;;;;;5.82;1.17;;;23.00;65.60;;;;;;4977731;28;20073;-73
2022/06/20 13:14:08;;;;;;;6.57;1.63;;;23.00;66.60;;;;;;4977160;28;20184;-73
2022/06/20 13:17:11;;;;;;;4.55;0.90;;;23.20;67.90;;;;;;4977275;28;20043;-73
2022/06/20 13:20:00;;;;;;;4.97;1.20;;;23.50;65.80;;;;;;4976455;28;20042;-73
2022/06/20 13:22:44;;;;;;;3.05;0.90;;;23.30;61.90;;;;;;4976469;28;20054;-73
2022/06/20 13:25:32;;;;;;;2.78;1.00;;;22.90;61.50;;;;;;4976726;28;20182;-73
2022/06/20 13:28:16;;;;;;;6.40;1.20;;;23.00;61.90;;;;;;4976396;28;20415;-73
2022/06/20 13:30:52;;;;;;;4.72;1.15;;;22.90;62.50;;;;;;4976801;28;20049;-73
2022/06/20 13:33:49;;;;;;;4.95;1.17;;;23.10;65.00;;;;;;4976171;28;20105;-73
2022/06/20 13:36:23;;;;;;;3.92;1.10;;;23.10;62.90;;;;;;4976660;28;20050;-73
2022/06/20 13:39:02;;;;;;;4.43;1.08;;;23.00;63.00;;;;;;4976327;28;20051;-73
2022/06/20 13:41:44;;;;;;;2.88;0.93;;;23.00;64.30;;;;;;4976341;28;20042;-73
2022/06/20 13:44:37;;;;;;;7.63;1.33;;;22.80;63.40;;;;;;4976339;28;20043;-72
2022/06/20 13:47:39;;;;;;;8.30;1.45;;;22.50;62.20;;;;;;4976943;28;20050;-73
2022/06/20 13:50:29;;;;;;;6.30;1.58;;;22.20;63.40;;;;;;4976209;28;20483;-73
2022/06/20 13:52:56;;;;;;;7.30;1.55;;;22.10;65.90;;;;;;4976734;28;20042;-73
2022/06/20 13:55:56;;;;;;;6.93;1.20;;;21.90;66.70;;;;;;4976702;28;20050;-73